Time;durP1;ratioP1;P1;durP2;ratioP2;P2;SDS_P1;SDS_P2;PMS_P1;PMS_P2;Temp;Humidity;BMP_temperature;BMP_pressure;BME280_temperature;BME280_humidity;BME280_pressure;Samples;Min_cycle;Max_cycle;Signal;HPM_P1;HPM_P2
2021/09/24 00:00:42;;;;;;;5.20;4.78;;;;;;;14.42;100.00;97626.94;2117115;84;20973;-85
2021/09/24 00:03:43;;;;;;;5.17;4.78;;;;;;;14.42;100.00;97621.16;2116876;84;21092;-85
2021/09/24 00:06:44;;;;;;;6.58;4.87;;;;;;;14.42;100.00;97614.56;2116869;84;21531;-85
2021/09/24 00:09:44;;;;;;;6.85;5.35;;;;;;;14.42;100.00;97610.62;2114923;84;21032;-85
2021/09/24 00:12:45;;;;;;;8.58;5.10;;;;;;;14.42;100.00;97611.13;2113022;84;21064;-85
2021/09/24 00:15:46;;;;;;;6.47;4.83;;;;;;;14.44;100.00;97610.38;2112846;84;21017;-84
2021/09/24 00:18:47;;;;;;;5.30;4.80;;;;;;;14.46;100.00;97603.11;2113657;84;21020;-85
2021/09/24 00:21:48;;;;;;;5.25;4.78;;;;;;;14.48;100.00;97606.30;2112990;84;20949;-85
2021/09/24 00:24:48;;;;;;;5.15;4.55;;;;;;;14.49;100.00;97603.95;2112973;84;21016;-85
2021/09/24 00:27:49;;;;;;;5.87;5.20;;;;;;;14.50;100.00;97601.08;2112873;84;21028;-85
2021/09/24 00:30:50;;;;;;;5.53;4.62;;;;;;;14.51;100.00;97597.41;2113007;84;20996;-85
2021/09/24 00:33:51;;;;;;;5.95;5.22;;;;;;;14.56;100.00;97595.41;2113084;84;21076;-85
2021/09/24 00:36:51;;;;;;;5.15;4.65;;;;;;;14.58;100.00;97601.77;2112630;84;20949;-85
2021/09/24 00:39:52;;;;;;;5.70;5.15;;;;;;;14.58;100.00;97598.61;2113089;84;21069;-85
2021/09/24 00:42:53;;;;;;;5.67;4.97;;;;;;;14.60;100.00;97612.34;2112958;84;21008;-86
2021/09/24 00:45:54;;;;;;;9.20;5.70;;;;;;;14.61;100.00;97631.06;2112928;84;21012;-85
2021/09/24 00:48:55;;;;;;;7.40;4.70;;;;;;;14.62;100.00;97641.89;2113145;84;21570;-86
2021/09/24 00:51:55;;;;;;;4.75;4.35;;;;;;;14.56;100.00;97656.52;2112798;84;21080;-85
2021/09/24 00:54:56;;;;;;;5.03;4.62;;;;;;;14.37;100.00;97678.19;2113003;84;21015;-85
2021/09/24 00:57:57;;;;;;;4.03;2.92;;;;;;;14.21;100.00;97696.25;2112917;84;21002;-85
2021/09/24 01:00:58;;;;;;;3.40;2.55;;;;;;;14.06;100.00;97705.09;2112827;84;21012;-85
2021/09/24 01:03:59;;;;;;;3.47;2.62;;;;;;;13.91;100.00;97673.16;2112941;84;21076;-86
2021/09/24 01:06:59;;;;;;;3.25;2.37;;;;;;;13.77;100.00;97670.41;2112990;84;21045;-86
2021/09/24 01:10:00;;;;;;;2.65;2.45;;;;;;;13.68;100.00;97669.13;2112637;84;21132;-85
2021/09/24 01:13:01;;;;;;;2.35;2.20;;;;;;;13.58;100.00;97666.53;2112926;84;21084;-85
2021/09/24 01:16:02;;;;;;;2.58;1.70;;;;;;;13.52;100.00;97691.08;2112632;84;20965;-84
2021/09/24 01:19:03;;;;;;;3.35;2.45;;;;;;;13.48;100.00;97693.08;2112873;84;21120;-85
2021/09/24 01:22:05;;;;;;;4.78;2.42;;;;;;;13.39;100.00;97682.06;2112321;84;21048;-85
2021/09/24 01:25:06;;;;;;;1.98;1.80;;;;;;;13.32;100.00;97689.23;2112968;84;21029;-85
2021/09/24 01:28:07;;;;;;;2.52;2.33;;;;;;;13.24;100.00;97690.33;2112904;84;21020;-85
2021/09/24 01:31:08;;;;;;;1.98;1.80;;;;;;;13.18;100.00;97693.03;2112846;84;21024;-85
2021/09/24 01:34:09;;;;;;;4.45;1.65;;;;;;;13.12;100.00;97701.78;2113060;84;21083;-84
2021/09/24 01:37:09;;;;;;;1.82;1.55;;;;;;;13.04;100.00;97697.62;2112859;84;21009;-85
2021/09/24 01:40:10;;;;;;;2.02;1.70;;;;;;;12.95;100.00;97697.11;2112733;84;21001;-85
2021/09/24 01:43:11;;;;;;;2.62;1.50;;;;;;;12.86;100.00;97701.05;2112896;84;21088;-85
2021/09/24 01:46:12;;;;;;;4.10;1.55;;;;;;;12.84;100.00;97714.12;2112909;84;20969;-84
2021/09/24 01:49:13;;;;;;;1.92;1.72;;;;;;;12.78;100.00;97710.52;2112938;84;21091;-84
2021/09/24 01:52:14;;;;;;;1.57;1.35;;;;;;;12.71;100.00;97712.41;2113011;84;20973;-85
2021/09/24 01:55:14;;;;;;;2.58;1.42;;;;;;;12.66;100.00;97724.09;2112747;84;21063;-85
2021/09/24 01:58:15;;;;;;;1.42;1.25;;;;;;;12.61;100.00;97735.73;2112876;84;21516;-85
2021/09/24 02:01:16;;;;;;;2.17;1.30;;;;;;;12.55;100.00;97738.73;2113032;84;21468;-85
2021/09/24 02:04:18;;;;;;;2.52;1.80;;;;;;;12.50;100.00;97729.37;2112731;84;21027;-85
2021/09/24 02:07:18;;;;;;;3.60;1.65;;;;;;;12.45;100.00;97737.91;2112827;84;21095;-84
2021/09/24 02:10:19;;;;;;;2.62;1.10;;;;;;;12.39;100.00;97740.06;2114472;84;21136;-85
2021/09/24 02:13:20;;;;;;;2.30;1.52;;;;;;;12.35;100.00;97725.78;2116947;84;21535;-85
2021/09/24 02:16:21;;;;;;;2.85;1.32;;;;;;;12.32;100.00;97730.13;2116940;84;21028;-85
2021/09/24 02:19:22;;;;;;;4.28;1.57;;;;;;;12.27;100.00;97728.67;2117070;84;21052;-85
2021/09/24 02:22:22;;;;;;;2.05;1.60;;;;;;;12.24;100.00;97735.13;2116829;84;21019;-85
2021/09/24 02:25:23;;;;;;;4.58;2.05;;;;;;;12.22;100.00;97738.48;2117054;84;21559;-85
2021/09/24 02:28:24;;;;;;;5.05;1.80;;;;;;;12.19;100.00;97745.47;2117017;84;21029;-84
2021/09/24 02:31:25;;;;;;;4.50;2.52;;;;;;;12.16;100.00;97764.28;2116922;84;21023;-85
2021/09/24 02:34:25;;;;;;;3.45;2.02;;;;;;;12.14;100.00;97762.35;2117008;84;20961;-84
2021/09/24 02:37:26;;;;;;;6.15;1.82;;;;;;;12.14;100.00;97771.53;2117004;84;20989;-85
2021/09/24 02:40:27;;;;;;;2.62;1.60;;;;;;;12.16;100.00;97780.50;2116634;84;21092;-84
2021/09/24 02:43:28;;;;;;;2.98;1.70;;;;;;;12.15;100.00;97782.33;2116947;84;22114;-84
2021/09/24 02:46:29;;;;;;;2.67;1.80;;;;;;;12.14;100.00;97800.41;2116977;84;21044;-84
2021/09/24 02:49:30;;;;;;;6.25;1.65;;;;;;;12.15;100.00;97803.83;2116957;84;21056;-85
2021/09/24 02:52:31;;;;;;;9.25;2.27;;;;;;;12.14;100.00;97799.09;2116716;84;21576;-85
2021/09/24 02:55:32;;;;;;;6.60;2.45;;;;;;;12.10;100.00;97789.24;2117032;84;20976;-85
2021/09/24 02:58:33;;;;;;;4.50;1.50;;;;;;;12.09;100.00;97812.56;2117037;84;21610;-85
2021/09/24 03:01:34;;;;;;;2.50;1.40;;;;;;;12.05;100.00;97813.47;2116896;84;21040;-84
2021/09/24 03:04:35;;;;;;;3.35;1.70;;;;;;;12.04;100.00;97823.67;2117161;84;21523;-85
2021/09/24 03:07:36;;;;;;;3.95;1.57;;;;;;;12.03;100.00;97823.38;2117188;84;20985;-85
2021/09/24 03:10:37;;;;;;;2.58;1.17;;;;;;;12.00;100.00;97835.61;2116875;84;21135;-85
2021/09/24 03:13:37;;;;;;;5.80;1.87;;;;;;;12.00;100.00;97835.61;2117109;84;21016;-85
2021/09/24 03:16:41;;;;;;;3.08;1.30;;;;;;;11.98;100.00;97838.13;2117091;84;21051;-85
2021/09/24 03:19:42;;;;;;;5.22;1.27;;;;;;;11.95;100.00;97846.72;2117042;84;21043;-84
2021/09/24 03:22:43;;;;;;;3.65;1.37;;;;;;;11.91;100.00;97835.56;2117094;84;21547;-85
2021/09/24 03:25:44;;;;;;;2.60;1.20;;;;;;;11.86;100.00;97837.48;2117100;84;21052;-85
2021/09/24 03:28:45;;;;;;;6.83;1.22;;;;;;;11.83;100.00;97855.47;2117194;84;21048;-84
2021/09/24 03:31:45;;;;;;;5.47;1.52;;;;;;;11.79;100.00;97856.34;2117132;84;21072;-85
2021/09/24 03:34:46;;;;;;;5.05;1.60;;;;;;;11.75;100.00;97857.78;2117175;84;20961;-85
2021/09/24 03:37:47;;;;;;;6.33;1.52;;;;;;;11.73;100.00;97845.89;2117028;84;21095;-85
2021/09/24 03:40:48;;;;;;;4.15;1.47;;;;;;;11.70;100.00;97847.09;2116611;84;21107;-85
2021/09/24 03:43:49;;;;;;;7.83;1.45;;;;;;;11.64;100.00;97853.98;2117172;84;21055;-85
2021/09/24 03:46:50;;;;;;;4.37;1.12;;;;;;;11.62;100.00;97867.02;2116933;84;21029;-85
2021/09/24 03:49:50;;;;;;;6.70;1.67;;;;;;;11.58;100.00;97872.35;2117012;84;21563;-85
2021/09/24 03:52:51;;;;;;;14.43;2.62;;;;;;;11.53;100.00;97878.23;2117073;84;21032;-85
2021/09/24 03:55:53;;;;;;;11.20;2.10;;;;;;;11.49;100.00;97891.42;2117092;84;21036;-84
2021/09/24 03:58:54;;;;;;;8.85;2.00;;;;;;;11.48;100.00;97887.70;2117024;84;21000;-84
2021/09/24 04:01:54;;;;;;;10.70;2.67;;;;;;;11.44;100.00;97878.66;2117171;84;21027;-85
2021/09/24 04:04:55;;;;;;;6.60;2.37;;;;;;;11.39;100.00;97873.50;2117042;84;21096;-85
2021/09/24 04:07:56;;;;;;;5.80;2.35;;;;;;;11.38;100.00;97878.95;2117166;84;21003;-86
2021/09/24 04:10:57;;;;;;;7.83;1.95;;;;;;;11.36;100.00;97879.16;2115365;84;21089;-87
2021/09/24 04:13:58;;;;;;;11.85;2.90;;;;;;;11.36;100.00;97891.47;2113411;84;21467;-86
2021/09/24 04:16:59;;;;;;;5.20;2.00;;;;;;;11.35;100.00;97898.52;2113313;84;21131;-85
2021/09/24 04:19:59;;;;;;;6.45;2.20;;;;;;;11.33;100.00;97903.14;2113063;84;21040;-86
2021/09/24 04:23:00;;;;;;;4.67;1.82;;;;;;;11.34;100.00;97897.42;2113054;84;20969;-86
2021/09/24 04:26:01;;;;;;;7.65;1.55;;;;;;;11.34;100.00;97904.78;2113381;84;21502;-89
2021/09/24 04:29:05;;;;;;;6.15;1.27;;;;;;;11.36;100.00;97912.44;2113079;84;21092;-88
2021/09/24 04:32:04;;;;;;;7.87;1.87;;;;;;;11.35;100.00;97915.56;2113074;84;22120;-89
2021/09/24 04:35:05;;;;;;;6.65;1.65;;;;;;;11.37;100.00;97924.02;2113041;84;21064;-87
2021/09/24 04:38:06;;;;;;;9.75;1.50;;;;;;;11.33;100.00;97933.78;2113190;84;21540;-86
2021/09/24 04:41:07;;;;;;;5.22;1.55;;;;;;;11.33;100.00;97928.04;2113274;84;21040;-90
2021/09/24 04:44:08;;;;;;;6.15;2.00;;;;;;;11.33;100.00;97927.23;2112629;84;21104;-85
2021/09/24 04:47:09;;;;;;;5.95;1.67;;;;;;;11.35;100.00;97933.10;2113176;84;21036;-87
2021/09/24 04:50:09;;;;;;;3.52;1.45;;;;;;;11.34;100.00;97925.75;2112944;84;21103;-87
2021/09/24 04:53:10;;;;;;;7.80;1.85;;;;;;;11.33;100.00;97928.04;2112924;84;21040;-87
2021/09/24 04:56:11;;;;;;;6.37;2.42;;;;;;;11.33;100.00;97933.28;2112988;84;21132;-86
2021/09/24 04:59:12;;;;;;;8.20;1.65;;;;;;;11.33;100.00;97931.16;2112740;84;21529;-86
2021/09/24 05:02:14;;;;;;;6.47;1.70;;;;;;;11.31;100.00;97927.95;2113168;84;21016;-89
2021/09/24 05:05:15;;;;;;;8.83;1.82;;;;;;;11.29;100.00;97918.18;2113010;84;21051;-88
2021/09/24 05:08:16;;;;;;;9.18;2.37;;;;;;;11.29;100.00;97937.84;2113791;84;21532;-90
2021/09/24 05:11:17;;;;;;;8.20;1.87;;;;;;;11.32;100.00;97939.53;2098482;81;21143;-85
2021/09/24 05:14:17;;;;;;;6.95;2.20;;;;;;;11.37;100.00;97952.05;2076080;85;21003;-86
2021/09/24 05:17:18;;;;;;;6.97;1.80;;;;;;;11.43;100.00;97947.31;2075286;85;21016;-87
2021/09/24 05:20:19;;;;;;;8.00;1.50;;;;;;;11.47;100.00;97951.13;2075363;85;20976;-89
2021/09/24 05:23:20;;;;;;;7.70;1.72;;;;;;;11.51;100.00;97943.65;2075830;86;21024;-89
2021/09/24 05:26:21;;;;;;;7.75;2.27;;;;;;;11.52;100.00;97952.65;2076910;85;20941;-87
2021/09/24 05:29:22;;;;;;;6.22;1.62;;;;;;;11.55;100.00;97950.11;2077916;85;21088;-89
2021/09/24 05:32:23;;;;;;;8.55;1.80;;;;;;;11.55;100.00;97964.02;2078247;85;21009;-87
2021/09/24 05:35:23;;;;;;;6.33;1.70;;;;;;;11.58;100.00;97962.30;2079432;85;21040;-89
2021/09/24 05:38:24;;;;;;;4.15;1.47;;;;;;;11.58;100.00;97962.30;2077429;83;21781;-90
2021/09/24 05:41:25;;;;;;;6.05;1.30;;;;;;;11.61;100.00;97953.21;2075602;85;20992;-88
2021/09/24 05:44:26;;;;;;;4.37;1.27;;;;;;;11.64;100.00;97952.31;2075674;85;21025;-90
2021/09/24 05:47:27;;;;;;;7.42;1.62;;;;;;;11.69;100.00;97970.05;2075006;85;21019;-91
2021/09/24 05:50:27;;;;;;;8.53;1.75;;;;;;;11.77;100.00;97963.27;2075218;85;21051;-90
2021/09/24 05:53:28;;;;;;;12.90;2.33;;;;;;;11.87;100.00;97974.17;2075122;85;21007;-89
2021/09/24 05:56:29;;;;;;;7.47;1.70;;;;;;;11.93;100.00;97975.18;2075044;85;21067;-88
2021/09/24 05:59:30;;;;;;;5.12;1.70;;;;;;;12.04;100.00;97978.47;2075088;85;20976;-85
2021/09/24 06:02:31;;;;;;;6.05;1.67;;;;;;;12.16;100.00;97974.22;2075456;85;20984;-85
2021/09/24 06:05:31;;;;;;;4.95;1.17;;;;;;;12.28;100.00;97985.38;2075098;86;21030;-87
2021/09/24 06:08:33;;;;;;;5.97;1.75;;;;;;;12.37;100.00;97984.93;2075095;85;21000;-88
2021/09/24 06:11:34;;;;;;;7.53;1.62;;;;;;;12.47;100.00;97988.42;2074847;84;21100;-88
2021/09/24 06:14:35;;;;;;;5.80;1.60;;;;;;;12.55;100.00;98007.88;2075031;85;21023;-88
2021/09/24 06:17:35;;;;;;;14.43;2.05;;;;;;;12.57;100.00;97987.97;2074990;85;20995;-88
2021/09/24 06:20:36;;;;;;;6.80;1.70;;;;;;;12.64;100.00;98003.20;2075162;85;20964;-87
2021/09/24 06:23:39;;;;;;;4.60;1.15;;;;;;;12.69;100.00;97994.16;2074768;85;21175;-87
2021/09/24 06:26:40;;;;;;;8.03;1.60;;;;;;;12.75;100.00;98001.21;2075172;86;21004;-88
2021/09/24 06:29:41;;;;;;;3.98;1.00;;;;;;;12.89;100.00;98008.50;2074913;85;21043;-88
2021/09/24 06:32:41;;;;;;;3.67;1.45;;;;;;;13.00;100.00;97998.14;2075000;85;21044;-88
2021/09/24 06:35:42;;;;;;;6.33;1.32;;;;;;;13.08;100.00;98002.34;2074891;85;21075;-88
2021/09/24 06:38:43;;;;;;;8.25;2.10;;;;;;;13.05;100.00;98013.25;2075247;85;21008;-87
2021/09/24 06:41:44;;;;;;;8.75;2.10;;;;;;;13.02;100.00;98023.69;2074992;86;21095;-88
2021/09/24 06:44:45;;;;;;;7.03;1.45;;;;;;;12.99;100.00;98022.00;2074878;86;21123;-88
2021/09/24 06:47:46;;;;;;;7.87;2.22;;;;;;;13.01;100.00;98023.91;2075074;85;20941;-87
2021/09/24 06:50:47;;;;;;;14.33;3.08;;;;;;;12.99;99.73;98024.12;2075297;86;21039;-88
2021/09/24 06:53:48;;;;;;;10.23;1.90;;;;;;;12.96;97.93;98018.47;2075204;85;21016;-87
2021/09/24 06:56:48;;;;;;;8.15;1.80;;;;;;;12.97;99.07;98037.95;2075157;85;21631;-87
2021/09/24 06:59:49;;;;;;;7.05;2.25;;;;;;;12.99;99.21;98021.50;2075045;85;21060;-88
2021/09/24 07:02:50;;;;;;;4.72;1.55;;;;;;;12.95;98.66;98028.69;2075283;85;21014;-87
2021/09/24 07:05:51;;;;;;;5.92;1.40;;;;;;;12.95;99.43;98032.63;2075258;85;21072;-87
2021/09/24 07:08:52;;;;;;;6.12;1.47;;;;;;;12.93;99.46;98039.92;2075247;85;20992;-87
2021/09/24 07:11:53;;;;;;;11.15;1.95;;;;;;;12.98;100.00;98045.33;2094409;83;21183;-88
2021/09/24 07:14:54;;;;;;;6.25;1.60;;;;;;;12.95;99.42;98041.31;2113186;84;20977;-87
2021/09/24 07:17:55;;;;;;;5.97;1.82;;;;;;;12.94;99.15;98048.90;2113068;84;21024;-87
2021/09/24 07:20:56;;;;;;;8.65;1.72;;;;;;;12.91;98.08;98056.41;2112919;84;21025;-87
2021/09/24 07:23:56;;;;;;;8.38;1.75;;;;;;;12.91;99.05;98059.03;2113040;84;21080;-87
2021/09/24 07:26:57;;;;;;;14.20;2.75;;;;;;;12.93;98.96;98060.43;2113055;84;21056;-87
2021/09/24 07:29:58;;;;;;;5.72;2.27;;;;;;;12.93;98.47;98051.73;2113040;84;21099;-87
2021/09/24 07:32:59;;;;;;;13.22;1.67;;;;;;;12.94;99.40;98048.90;2113174;84;20996;-87
2021/09/24 07:35:59;;;;;;;6.87;1.47;;;;;;;12.95;99.00;98053.64;2117372;84;21012;-87
2021/09/24 07:39:00;;;;;;;5.50;2.05;;;;;;;13.03;99.50;98067.34;2114050;84;21072;-86
2021/09/24 07:42:01;;;;;;;7.20;2.00;;;;;;;13.09;98.65;98066.52;2113357;84;21587;-87
2021/09/24 07:45:02;;;;;;;10.00;2.10;;;;;;;13.19;98.46;98070.50;2113083;84;20980;-88
2021/09/24 07:48:04;;;;;;;11.60;2.67;;;;;;;13.24;98.81;98082.00;2112709;84;21055;-87
2021/09/24 07:51:05;;;;;;;4.92;1.95;;;;;;;13.31;98.52;98077.52;2113876;84;21052;-85
2021/09/24 07:54:05;;;;;;;9.50;2.20;;;;;;;13.28;97.25;98079.78;2116819;84;21046;-87
2021/09/24 07:57:06;;;;;;;8.35;1.98;;;;;;;13.29;97.90;98081.39;2113690;84;21052;-87
2021/09/24 08:00:07;;;;;;;9.90;2.25;;;;;;;13.32;97.94;98098.84;2113254;84;21534;-87
2021/09/24 08:03:08;;;;;;;10.30;2.05;;;;;;;13.34;98.10;98107.83;2113173;84;21016;-87
2021/09/24 08:06:09;;;;;;;4.80;2.15;;;;;;;13.36;96.64;98095.30;2112960;84;21059;-87
2021/09/24 08:09:09;;;;;;;7.20;2.47;;;;;;;13.35;96.98;98097.13;2112851;84;21020;-87
2021/09/24 08:12:10;;;;;;;6.53;1.70;;;;;;;13.33;97.37;98103.08;2114977;84;21041;-87
2021/09/24 08:15:11;;;;;;;13.90;2.65;;;;;;;13.34;97.05;98102.58;2117005;84;21000;-87
2021/09/24 08:18:12;;;;;;;7.72;1.90;;;;;;;13.35;97.41;98102.90;2117111;84;21016;-87
2021/09/24 08:21:13;;;;;;;5.53;1.98;;;;;;;13.42;96.61;98110.72;2116945;84;21072;-87
2021/09/24 08:24:14;;;;;;;9.98;2.42;;;;;;;13.42;96.12;98105.47;2116961;84;20992;-86
2021/09/24 08:27:14;;;;;;;11.12;3.25;;;;;;;13.36;96.74;98115.02;2117052;84;21085;-84
2021/09/24 08:30:15;;;;;;;6.95;2.15;;;;;;;13.34;97.39;98128.87;2116596;84;21654;-84
2021/09/24 08:33:16;;;;;;;6.17;2.55;;;;;;;13.37;97.41;98132.41;2117268;84;21487;-87
2021/09/24 08:36:17;;;;;;;7.75;2.08;;;;;;;13.44;97.16;98127.92;2117079;84;21547;-87
2021/09/24 08:39:18;;;;;;;10.20;2.05;;;;;;;13.50;96.35;98130.20;2117226;84;21012;-87
2021/09/24 08:42:19;;;;;;;9.13;1.70;;;;;;;13.58;96.19;98133.37;2117641;84;21015;-87
2021/09/24 08:45:30;;;;;;;10.15;2.17;;;;;;;13.69;96.56;98132.40;2118649;84;20999;-89
2021/09/24 08:48:31;;;;;;;5.72;1.72;;;;;;;13.74;96.52;98138.64;2117249;84;21043;-86
2021/09/24 08:51:32;;;;;;;7.60;1.62;;;;;;;13.81;94.82;98138.60;2117281;84;21018;-88
2021/09/24 08:54:33;;;;;;;8.53;2.55;;;;;;;13.81;94.82;98138.60;2117165;84;21008;-88
2021/09/24 08:57:33;;;;;;;7.17;1.60;;;;;;;13.90;96.51;98143.90;2117123;84;21004;-87
2021/09/24 09:00:34;;;;;;;5.67;2.10;;;;;;;13.93;94.88;98153.47;2117045;84;21043;-88
2021/09/24 09:03:35;;;;;;;9.65;2.37;;;;;;;13.88;95.02;98153.81;2117409;84;21055;-90
2021/09/24 09:06:36;;;;;;;4.22;1.55;;;;;;;13.75;94.88;98165.76;2117088;84;21558;-87
2021/09/24 09:09:37;;;;;;;7.47;1.98;;;;;;;13.66;96.00;98171.78;2117068;84;21043;-86
2021/09/24 09:12:37;;;;;;;5.85;1.80;;;;;;;13.63;96.53;98164.33;2116928;84;21024;-86
2021/09/24 09:15:38;;;;;;;7.75;2.47;;;;;;;13.57;96.29;98181.75;2117155;84;22200;-88
2021/09/24 09:18:39;;;;;;;5.17;1.52;;;;;;;13.52;96.76;98178.13;2117047;84;21059;-87
2021/09/24 09:21:42;;;;;;;6.12;2.22;;;;;;;13.55;97.55;98186.93;2117099;84;21072;-88
2021/09/24 09:24:42;;;;;;;11.43;1.95;;;;;;;13.59;97.96;98189.42;2117279;84;21024;-87
2021/09/24 09:27:43;;;;;;;11.30;2.22;;;;;;;13.62;97.95;98187.20;2117435;84;21020;-87
2021/09/24 09:30:44;;;;;;;11.78;1.87;;;;;;;13.67;97.61;98208.91;2117045;84;21067;-89
2021/09/24 09:33:45;;;;;;;8.20;2.10;;;;;;;13.74;97.56;98179.42;2117316;84;21004;-89
2021/09/24 09:36:46;;;;;;;6.80;2.08;;;;;;;13.94;97.20;98185.86;2117218;84;21511;-87
2021/09/24 09:39:46;;;;;;;13.05;2.62;;;;;;;14.09;96.69;98178.47;2116975;84;21048;-86
2021/09/24 09:42:47;;;;;;;7.22;1.82;;;;;;;14.26;96.89;98187.92;2117097;84;21107;-88
2021/09/24 09:45:48;;;;;;;9.98;2.10;;;;;;;14.49;96.43;98175.00;2117193;84;21456;-93
2021/09/24 09:48:49;;;;;;;7.97;2.60;;;;;;;14.75;96.41;98181.03;2116234;84;21071;-94
2021/09/24 09:51:50;;;;;;;8.43;1.65;;;;;;;14.88;94.63;98184.02;2116860;84;21037;-88
2021/09/24 09:54:51;;;;;;;6.67;1.72;;;;;;;15.01;93.48;98191.80;2116890;84;21034;-85
2021/09/24 09:57:52;;;;;;;9.85;1.98;;;;;;;15.12;93.75;98182.34;2117135;84;20984;-87
2021/09/24 10:00:53;;;;;;;9.93;2.02;;;;;;;15.26;92.21;98194.31;2121076;84;21005;-87
2021/09/24 10:03:53;;;;;;;9.20;2.17;;;;;;;15.26;89.79;98205.67;2117881;84;21011;-87
2021/09/24 10:06:55;;;;;;;6.12;1.92;;;;;;;15.26;90.71;98215.42;2117348;84;20984;-90
2021/09/24 10:09:56;;;;;;;6.37;2.00;;;;;;;15.36;90.17;98213.89;2116953;84;21035;-87
2021/09/24 10:12:57;;;;;;;9.58;2.45;;;;;;;15.33;89.64;98218.27;2116828;84;21592;-87
2021/09/24 10:15:58;;;;;;;12.98;2.27;;;;;;;15.25;91.21;98225.16;2117731;84;21016;-86
2021/09/24 10:18:59;;;;;;;5.72;2.08;;;;;;;15.14;90.64;98236.97;2120279;84;21056;-88
2021/09/24 10:22:00;;;;;;;6.60;1.52;;;;;;;14.94;91.22;98232.72;2117929;84;21016;-88
2021/09/24 10:25:00;;;;;;;7.03;1.87;;;;;;;14.92;90.90;98236.61;2119000;84;21623;-90
2021/09/24 10:28:01;;;;;;;4.22;1.70;;;;;;;14.78;91.14;98243.31;2119137;84;21060;-88
2021/09/24 10:31:02;;;;;;;7.15;1.62;;;;;;;14.70;92.55;98250.17;2118561;84;21000;-89
2021/09/24 10:34:03;;;;;;;4.70;1.60;;;;;;;14.56;91.43;98250.02;2118470;84;21095;-89
2021/09/24 10:37:04;;;;;;;8.33;1.98;;;;;;;14.43;92.44;98246.13;2118027;84;20996;-90
2021/09/24 10:40:05;;;;;;;6.50;1.62;;;;;;;14.30;92.59;98247.05;2117206;84;21084;-90
2021/09/24 10:43:06;;;;;;;5.15;1.70;;;;;;;14.22;93.29;98253.39;2118793;84;20988;-87
2021/09/24 10:46:06;;;;;;;6.80;2.50;;;;;;;14.20;93.62;98243.59;2121639;84;21047;-88
2021/09/24 10:49:07;;;;;;;6.75;2.12;;;;;;;14.32;93.30;98239.73;2120662;84;21020;-88
2021/09/24 10:52:08;;;;;;;6.67;2.10;;;;;;;14.51;93.45;98245.89;2118245;84;20965;-91
2021/09/24 10:55:09;;;;;;;7.37;1.40;;;;;;;14.73;93.16;98247.64;2117983;84;21023;-90
2021/09/24 10:58:10;;;;;;;8.20;1.72;;;;;;;14.87;92.54;98243.84;2117446;84;21025;-92
2021/09/24 11:01:15;;;;;;;9.08;1.50;;;;;;;14.89;92.35;98248.37;2117351;84;21475;-91
2021/09/24 11:04:14;;;;;;;6.08;1.90;;;;;;;14.84;91.09;98242.97;2117881;83;21132;-89
2021/09/24 11:07:15;;;;;;;8.63;1.87;;;;;;;14.69;90.75;98253.03;2117699;84;20981;-89
2021/09/24 11:10:16;;;;;;;10.08;2.98;;;;;;;14.67;91.10;98258.53;2117171;84;21064;-91
2021/09/24 11:13:20;;;;;;;6.00;1.98;;;;;;;14.68;91.29;98244.84;2114729;84;21597;-90
2021/09/24 11:16:19;;;;;;;6.25;1.90;;;;;;;14.76;90.05;98256.42;2113820;84;21160;-90
2021/09/24 11:19:20;;;;;;;1.65;1.00;;;;;;;14.84;90.25;98250.88;2113766;84;20980;-89
2021/09/24 11:22:21;;;;;;;6.45;2.10;;;;;;;14.87;89.16;98243.03;2114909;84;21107;-88
2021/09/24 11:25:22;;;;;;;3.62;1.70;;;;;;;14.95;89.62;98250.14;2114787;84;21479;-93
2021/09/24 11:28:23;;;;;;;6.90;2.00;;;;;;;15.03;89.55;98237.20;2113625;84;21039;-90
2021/09/24 11:31:24;;;;;;;7.78;1.77;;;;;;;15.17;89.38;98253.66;2113187;84;21072;-92
2021/09/24 11:34:25;;;;;;;4.22;1.27;;;;;;;15.27;89.69;98254.78;2113522;84;21571;-92
2021/09/24 11:37:25;;;;;;;5.78;2.05;;;;;;;15.39;88.61;98244.29;2113241;84;21043;-92
2021/09/24 11:40:26;;;;;;;5.47;1.60;;;;;;;15.46;89.21;98256.89;2114510;84;20993;-91
2021/09/24 11:43:27;;;;;;;4.37;1.52;;;;;;;15.55;88.56;98258.20;2113841;84;21104;-92
2021/09/24 11:46:28;;;;;;;3.65;1.80;;;;;;;15.58;87.73;98260.38;2113291;84;21084;-91
2021/09/24 11:49:29;;;;;;;6.17;2.47;;;;;;;15.59;86.64;98271.74;2113230;84;21107;-91
2021/09/24 11:52:30;;;;;;;2.52;1.35;;;;;;;15.61;87.48;98263.92;2113521;84;21016;-91
2021/09/24 11:55:31;;;;;;;6.65;1.60;;;;;;;15.55;85.22;98258.20;2114318;84;21061;-92
2021/09/24 11:58:31;;;;;;;5.92;1.55;;;;;;;15.53;84.27;98238.32;2113952;84;21016;-91
2021/09/24 12:01:32;;;;;;;4.33;1.45;;;;;;;15.52;83.77;98255.98;2114189;84;20989;-89
2021/09/24 12:04:33;;;;;;;2.67;1.50;;;;;;;15.54;83.35;98253.13;2116130;84;21103;-90
2021/09/24 12:07:34;;;;;;;5.72;2.08;;;;;;;15.59;81.87;98260.67;2115834;84;21009;-91
2021/09/24 12:10:35;;;;;;;9.03;2.10;;;;;;;15.68;81.91;98254.61;2114560;84;21579;-92
2021/09/24 12:13:36;;;;;;;5.30;1.75;;;;;;;15.87;82.97;98253.53;2109802;83;21071;-88
2021/09/24 12:16:37;;;;;;;5.33;1.90;;;;;;;15.99;81.46;98247.48;2095394;85;21090;-90
2021/09/24 12:19:38;;;;;;;8.18;2.00;;;;;;;16.04;78.00;98242.34;2095984;85;21039;-91
2021/09/24 12:22:39;;;;;;;4.70;1.37;;;;;;;16.07;77.72;98255.87;2095802;85;21087;-92
2021/09/24 12:25:40;;;;;;;5.25;1.32;;;;;;;16.12;77.02;98249.94;2099012;84;21301;-87
2021/09/24 12:28:41;;;;;;;4.60;1.30;;;;;;;16.27;79.28;98258.22;2098143;85;21028;-92
2021/09/24 12:31:41;;;;;;;3.80;1.57;;;;;;;16.41;73.71;98248.27;2096223;85;20995;-91
2021/09/24 12:34:42;;;;;;;7.17;1.65;;;;;;;16.43;72.86;98256.23;2095064;85;21611;-89
2021/09/24 12:37:43;;;;;;;3.87;1.45;;;;;;;16.44;72.26;98236.71;2095219;85;21047;-91
2021/09/24 12:40:44;;;;;;;3.83;1.25;;;;;;;16.45;72.17;98244.12;2095055;85;20992;-85
2021/09/24 12:43:45;;;;;;;7.97;1.60;;;;;;;16.46;71.15;98273.50;2098039;85;21047;-85
2021/09/24 12:46:46;;;;;;;5.20;1.70;;;;;;;16.55;71.82;98268.66;2095790;85;21531;-86
2021/09/24 12:49:47;;;;;;;5.75;2.10;;;;;;;16.55;70.60;98268.66;2094993;85;21015;-87
2021/09/24 12:52:47;;;;;;;6.15;1.50;;;;;;;16.47;70.45;98271.95;2094955;85;21019;-88
2021/09/24 12:55:50;;;;;;;5.50;1.87;;;;;;;16.34;69.22;98264.73;2095160;85;21043;-89
2021/09/24 12:58:51;;;;;;;3.02;1.40;;;;;;;16.30;70.74;98280.23;2094960;85;21083;-87
2021/09/24 13:01:51;;;;;;;5.17;1.82;;;;;;;16.31;72.06;98281.05;2095029;85;20996;-84
2021/09/24 13:04:52;;;;;;;4.65;1.30;;;;;;;16.30;72.30;98301.37;2095038;85;21083;-85
2021/09/24 13:07:53;;;;;;;2.87;1.60;;;;;;;16.35;72.69;98288.79;2095066;85;21063;-84
2021/09/24 13:10:54;;;;;;;5.83;1.85;;;;;;;16.45;74.66;98303.05;2094984;85;21064;-85
2021/09/24 13:13:55;;;;;;;7.22;1.65;;;;;;;16.41;74.73;98295.30;2092104;85;21075;-84
2021/09/24 13:16:56;;;;;;;3.83;2.10;;;;;;;16.34;75.26;98301.20;2090754;85;21511;-85
2021/09/24 13:19:56;;;;;;;7.22;3.70;;;;;;;16.28;76.17;98296.84;2090709;85;21024;-86
2021/09/24 13:22:57;;;;;;;11.38;1.95;;;;;;;16.20;74.56;98295.84;2090815;85;21071;-87
2021/09/24 13:25:59;;;;;;;7.92;2.25;;;;;;;16.13;75.89;98290.64;2091128;85;21019;-85
2021/09/24 13:29:00;;;;;;;7.05;2.45;;;;;;;16.14;74.53;98276.41;2090708;85;21119;-85
2021/09/24 13:32:01;;;;;;;9.80;3.50;;;;;;;16.17;75.20;98285.70;2065314;85;21055;-86
2021/09/24 13:35:03;;;;;;;7.58;1.70;;;;;;;16.15;74.97;98289.89;2108663;84;21441;-88
2021/09/24 13:38:04;;;;;;;6.80;1.65;;;;;;;16.17;74.57;98289.66;2091796;84;21519;-86
2021/09/24 13:41:04;;;;;;;5.53;2.10;;;;;;;16.16;74.08;98284.09;2107749;84;20989;-88
2021/09/24 13:44:05;;;;;;;8.28;2.25;;;;;;;16.17;74.86;98277.78;2108415;84;21013;-88
2021/09/24 13:47:06;;;;;;;4.35;1.30;;;;;;;16.14;74.20;98300.17;2107557;84;20969;-89
2021/09/24 13:50:07;;;;;;;6.17;2.33;;;;;;;16.19;74.61;98304.80;2107723;84;21096;-89
2021/09/24 13:53:09;;;;;;;5.03;1.70;;;;;;;16.10;74.10;98302.98;2107703;84;20950;-89
2021/09/24 13:56:12;;;;;;;7.65;2.67;;;;;;;15.96;74.08;98298.10;2107709;84;21028;-88
2021/09/24 13:59:13;;;;;;;8.88;2.92;;;;;;;15.88;75.29;98301.84;2114033;84;21027;-89
2021/09/24 14:02:14;;;;;;;4.75;2.22;;;;;;;15.83;74.98;98297.77;2113367;84;21001;-89
2021/09/24 14:05:15;;;;;;;4.17;1.75;;;;;;;15.79;74.78;98292.11;2113585;84;21100;-91